Главная страница
METAR-TAF:

METAR-TAF

Аэропорты :

York Airport

Йорк, Пенсильвания, США

широта: 39-55-10N, долгота: 076-52-37W, высота над уровнем моря: 146 м

Текущие метеонаблюдения

Эта сводка был подготовлена 51 минут назад, в 09:53 UTC
Штиль
Температура 2°C
Влажность 80%
Давление 1025 hPa
Видимость: 16.1 км
ясное небо

METAR: KTHV 220953Z AUTO 00000KT 10SM CLR 02/M01 A3026 RMK AO2 SLP252 T00221006

Время: 06:44 (10:44 UTC)


TAF: отсутствует

Метеонаблюдения и прогнозы для более 4000 аэропортов (сводки METAR и TAF).

Имеющиеся станции представлены на карте желтыми и красными точками.

Чтобы увидеть название станции, наведите на нее мышь.

Затем щелкните, чтобы увидеть метеонаблюдения и метеопрогнозы.

Управление картой: чтобы увеличить масштаб, щелкните зеленые кнопки с черным крестиком; чтобы уменьшить масштаб, щелкните зеленую кнопку с тире; для просмотра соседних карт щелкайте зеленые стрелки.


METAR-TAF: